createdAt,value
2023-04-25T00:00:20.994Z,9.02
2023-04-25T00:02:48.229Z,9.10
2023-04-25T00:05:18.477Z,8.98
2023-04-25T00:07:45.557Z,9.05
2023-04-25T00:10:12.930Z,8.65
2023-04-25T00:12:40.264Z,8.90
2023-04-25T00:15:07.855Z,8.70
2023-04-25T00:17:36.046Z,9.88
2023-04-25T00:20:06.172Z,9.05
2023-04-25T00:22:35.842Z,8.88
2023-04-25T00:25:04.489Z,8.15
2023-04-25T00:27:31.572Z,8.85
2023-04-25T00:29:58.691Z,8.35
2023-04-25T00:32:26.197Z,8.98
2023-04-25T00:34:53.296Z,9.13
2023-04-25T00:37:20.979Z,9.45
2023-04-25T00:39:48.007Z,8.85
2023-04-25T00:42:15.140Z,9.27
2023-04-25T00:44:43.340Z,8.70
2023-04-25T00:47:12.548Z,9.95
2023-04-25T00:49:39.534Z,10.27
2023-04-25T00:52:06.685Z,9.10
2023-04-25T00:54:33.721Z,9.20
2023-04-25T00:57:02.138Z,9.30
2023-04-25T00:59:30.944Z,8.98
2023-04-25T01:01:59.210Z,9.55
2023-04-25T01:04:30.841Z,8.98
2023-04-25T01:06:59.107Z,9.75
2023-04-25T01:09:26.861Z,9.48
2023-04-25T01:11:54.006Z,9.30
2023-04-25T01:14:21.240Z,9.23
2023-04-25T01:16:48.359Z,8.35
2023-04-25T01:19:19.258Z,9.25
2023-04-25T01:21:47.593Z,8.80
2023-04-25T01:24:15.407Z,9.07
2023-04-25T01:26:50.653Z,8.93
2023-04-25T01:29:22.527Z,9.35
2023-04-25T01:31:50.392Z,10.38
2023-04-25T01:34:17.504Z,8.95
2023-04-25T01:36:44.544Z,9.45
2023-04-25T01:39:11.683Z,9.95
2023-04-25T01:41:39.830Z,9.82
2023-04-25T01:44:07.355Z,9.05
2023-04-25T01:46:35.119Z,9.70
2023-04-25T01:49:03.068Z,9.60
2023-04-25T01:51:31.582Z,9.57
2023-04-25T01:54:01.006Z,8.82
2023-04-25T01:56:33.818Z,9.73
2023-04-25T01:59:01.826Z,9.00
2023-04-25T02:02:05.011Z,9.60
2023-04-25T02:04:34.069Z,9.10
2023-04-25T02:07:02.393Z,9.88
2023-04-25T02:09:39.190Z,9.55
2023-04-25T02:12:09.947Z,9.43
2023-04-25T02:15:00.027Z,9.73
2023-04-25T02:17:36.491Z,9.45
2023-04-25T02:20:04.313Z,9.32
2023-04-25T02:22:31.791Z,9.70
2023-04-25T02:24:59.108Z,9.98
2023-04-25T02:27:26.341Z,9.73
2023-04-25T02:29:53.363Z,10.40
2023-04-25T02:32:20.521Z,9.05
2023-04-25T02:34:49.239Z,10.52
2023-04-25T02:37:16.249Z,9.57
2023-04-25T02:39:46.224Z,10.57
2023-04-25T02:42:13.379Z,9.10
2023-04-25T02:44:40.436Z,10.50
2023-04-25T02:47:07.542Z,10.05
2023-04-25T02:49:34.575Z,9.30
2023-04-25T02:52:01.680Z,8.80
2023-04-25T02:54:28.947Z,9.80
2023-04-25T02:56:56.933Z,9.50
2023-04-25T02:59:28.037Z,9.95
2023-04-25T03:01:55.215Z,10.68
2023-04-25T03:04:24.964Z,11.07
2023-04-25T03:06:52.635Z,11.65
2023-04-25T03:09:21.850Z,10.73
2023-04-25T03:11:49.479Z,9.82
2023-04-25T03:14:16.530Z,10.00
2023-04-25T03:16:43.618Z,10.40
2023-04-25T03:19:10.764Z,9.93
2023-04-25T03:21:38.501Z,9.00
2023-04-25T03:24:06.170Z,10.40
2023-04-25T03:26:33.331Z,9.95
2023-04-25T03:29:00.828Z,9.85
2023-04-25T03:31:28.512Z,11.18
2023-04-25T03:33:55.662Z,11.07
2023-04-25T03:36:24.303Z,10.63
2023-04-25T03:38:51.722Z,10.38
2023-04-25T03:41:21.249Z,9.45
2023-04-25T03:43:55.086Z,9.35
2023-04-25T03:46:22.333Z,8.93
2023-04-25T03:48:49.920Z,9.52
2023-04-25T03:51:22.409Z,11.32
2023-04-25T03:53:49.996Z,10.68
2023-04-25T03:56:20.099Z,10.75
2023-04-25T03:58:50.902Z,10.25
2023-04-25T04:01:20.596Z,10.60
2023-04-25T04:03:48.398Z,11.38
2023-04-25T04:06:16.842Z,11.43
2023-04-25T04:08:48.136Z,10.23
2023-04-25T04:11:15.292Z,10.77
2023-04-25T04:13:42.655Z,10.20
2023-04-25T04:16:09.870Z,10.50
2023-04-25T04:18:37.202Z,10.85
2023-04-25T04:21:04.235Z,11.30
2023-04-25T04:23:34.834Z,10.35
2023-04-25T04:26:02.271Z,10.15
2023-04-25T04:28:38.879Z,10.27
2023-04-25T04:31:26.233Z,10.30
2023-04-25T04:33:53.425Z,10.07
2023-04-25T04:36:21.031Z,10.18
2023-04-25T04:38:48.922Z,9.05
2023-04-25T04:41:24.869Z,8.65
2023-04-25T04:44:08.857Z,10.13
2023-04-25T04:47:08.355Z,9.43
2023-04-25T04:49:53.137Z,10.05
2023-04-25T04:52:53.106Z,9.82
2023-04-25T04:55:43.979Z,9.65
2023-04-25T04:58:30.772Z,9.48
2023-04-25T05:01:24.497Z,8.30
2023-04-25T05:04:15.236Z,9.10
2023-04-25T05:07:00.806Z,8.35
2023-04-25T05:09:28.190Z,7.85
2023-04-25T05:12:15.578Z,7.75
2023-04-25T05:14:58.826Z,8.73
2023-04-25T05:17:44.541Z,7.72
2023-04-25T05:20:30.401Z,8.05
2023-04-25T05:23:01.210Z,8.13
2023-04-25T05:25:43.742Z,7.18
2023-04-25T05:28:17.562Z,7.53
2023-04-25T05:31:01.226Z,7.75
2023-04-25T05:33:31.635Z,9.13
2023-04-25T05:36:00.027Z,9.38
2023-04-25T05:38:27.401Z,8.75
2023-04-25T05:41:26.912Z,9.85
2023-04-25T05:44:01.716Z,10.02
2023-04-25T05:46:31.735Z,9.20
2023-04-25T05:49:19.849Z,9.45
2023-04-25T05:51:58.766Z,9.38
2023-04-25T05:54:44.378Z,9.40
2023-04-25T05:57:21.726Z,9.82
2023-04-25T05:59:48.892Z,9.23
2023-04-25T06:02:16.299Z,8.35
2023-04-25T06:04:43.998Z,8.88
2023-04-25T06:07:11.281Z,8.13
2023-04-25T06:09:40.098Z,8.70
2023-04-25T06:12:07.956Z,7.60
2023-04-25T06:14:36.709Z,7.25
2023-04-25T06:17:09.404Z,6.72
2023-04-25T06:19:37.313Z,6.25
2023-04-25T06:22:04.499Z,7.05
2023-04-25T06:24:35.826Z,6.35
2023-04-25T06:27:04.812Z,6.43
2023-04-25T06:29:31.856Z,7.07
2023-04-25T06:31:59.211Z,6.72
2023-04-25T06:34:26.306Z,7.43
2023-04-25T06:36:53.609Z,6.30
2023-04-25T06:39:24.149Z,6.47
2023-04-25T06:41:51.209Z,6.30
2023-04-25T06:44:36.991Z,5.97
2023-04-25T06:47:07.567Z,6.18
2023-04-25T06:49:34.714Z,6.28
2023-04-25T06:52:02.669Z,5.90
2023-04-25T06:54:30.820Z,6.57
2023-04-25T06:57:05.548Z,5.67
2023-04-25T06:59:33.956Z,5.43
2023-04-25T07:02:01.058Z,5.38
2023-04-25T07:04:28.995Z,5.90
2023-04-25T07:06:57.955Z,5.38
2023-04-25T07:09:35.084Z,5.80
2023-04-25T07:12:02.732Z,5.72
2023-04-25T07:14:29.696Z,5.50
2023-04-25T07:16:58.261Z,4.80
2023-04-25T07:19:27.941Z,5.40
2023-04-25T07:21:57.583Z,5.75
2023-04-25T07:24:25.107Z,5.70
2023-04-25T07:26:54.745Z,5.28
2023-04-25T07:29:38.192Z,4.97
2023-04-25T07:32:05.771Z,4.95
2023-04-25T07:34:33.255Z,4.80
2023-04-25T07:37:00.909Z,5.90
2023-04-25T07:39:35.594Z,5.47
2023-04-25T07:42:03.338Z,5.60
2023-04-25T07:44:39.362Z,5.22
2023-04-25T07:47:08.615Z,5.18
2023-04-25T07:49:36.527Z,4.80
2023-04-25T07:52:04.820Z,4.47
2023-04-25T07:54:32.181Z,4.70
2023-04-25T07:57:04.959Z,4.47
2023-04-25T07:59:32.059Z,4.28
2023-04-25T08:02:02.044Z,4.30
2023-04-25T08:04:30.097Z,4.22
2023-04-25T08:07:05.374Z,5.28
2023-04-25T08:09:40.371Z,5.10
2023-04-25T08:12:12.869Z,5.72
2023-04-25T08:14:41.224Z,5.00
2023-04-25T08:17:08.400Z,4.80
2023-04-25T08:19:40.700Z,4.40
2023-04-25T08:22:12.324Z,5.07
2023-04-25T08:24:49.277Z,4.43
2023-04-25T08:27:18.067Z,4.85
2023-04-25T08:29:45.221Z,5.20
2023-04-25T08:32:12.445Z,4.40
2023-04-25T08:34:47.915Z,4.97
2023-04-25T08:37:15.459Z,5.07
2023-04-25T08:39:54.721Z,4.57
2023-04-25T08:42:42.648Z,5.07
2023-04-25T08:45:10.685Z,4.60
2023-04-25T08:47:41.050Z,5.15
2023-04-25T08:50:08.837Z,4.75
2023-04-25T08:52:46.929Z,4.30
2023-04-25T08:55:15.482Z,4.85
2023-04-25T08:57:46.547Z,4.72
2023-04-25T09:00:14.504Z,5.00
2023-04-25T09:02:45.244Z,4.50
2023-04-25T09:05:14.881Z,4.55
2023-04-25T09:07:42.663Z,4.13
2023-04-25T09:10:10.233Z,12.80
2023-04-25T09:12:39.147Z,5.32
2023-04-25T09:15:11.922Z,5.25
2023-04-25T09:17:58.220Z,4.70
2023-04-25T09:20:30.297Z,5.18
2023-04-25T09:23:06.503Z,5.40
2023-04-25T09:25:39.960Z,5.40
2023-04-25T09:28:09.044Z,5.38
2023-04-25T09:30:37.957Z,6.07
2023-04-25T09:33:12.700Z,4.93
2023-04-25T09:35:46.178Z,5.72
2023-04-25T09:38:22.443Z,6.00
2023-04-25T09:41:24.913Z,7.13
2023-04-25T09:43:52.356Z,6.30
2023-04-25T09:46:22.250Z,6.03
2023-04-25T09:48:55.077Z,4.03
2023-04-25T09:51:56.204Z,3.95
2023-04-25T09:54:27.644Z,4.38
2023-04-25T09:57:12.762Z,4.47
2023-04-25T09:59:44.619Z,3.85
2023-04-25T10:02:12.885Z,4.00
2023-04-25T10:04:42.262Z,4.10
2023-04-25T10:07:32.427Z,4.18
2023-04-25T10:10:05.868Z,3.95
2023-04-25T10:12:37.301Z,3.47
2023-04-25T10:15:05.267Z,3.38
2023-04-25T10:17:35.272Z,3.58
2023-04-25T10:20:09.399Z,3.85
2023-04-25T10:22:47.345Z,3.88
2023-04-25T10:25:15.288Z,3.30
2023-04-25T10:27:42.740Z,4.00
2023-04-25T10:30:17.007Z,4.03
2023-04-25T10:32:45.051Z,4.30
2023-04-25T10:35:17.733Z,4.13
2023-04-25T10:38:09.892Z,3.97
2023-04-25T10:40:37.704Z,4.55
2023-04-25T10:43:32.421Z,4.45
2023-04-25T10:46:03.132Z,4.20
2023-04-25T10:48:32.093Z,3.67
2023-04-25T10:51:12.310Z,4.32
2023-04-25T10:53:39.431Z,3.67
2023-04-25T10:56:34.055Z,4.18
2023-04-25T10:59:05.901Z,4.35
2023-04-25T11:01:38.503Z,3.50
2023-04-25T11:04:05.998Z,3.80
2023-04-25T11:07:08.542Z,3.88
2023-04-25T11:09:39.033Z,3.22
2023-04-25T11:12:06.475Z,2.90
2023-04-25T11:14:33.445Z,3.60
2023-04-25T11:17:02.222Z,4.80
2023-04-25T11:19:30.387Z,4.20
2023-04-25T11:21:59.238Z,4.63
2023-04-25T11:24:36.577Z,3.55
2023-04-25T11:27:05.041Z,3.50
2023-04-25T11:29:34.183Z,2.97
2023-04-25T11:32:02.339Z,3.13
2023-04-25T11:34:33.957Z,3.33
2023-04-25T11:37:03.225Z,3.97
2023-04-25T11:39:31.073Z,3.63
2023-04-25T11:41:58.373Z,3.22
2023-04-25T11:44:25.681Z,3.22
2023-04-25T11:46:52.707Z,3.38
2023-04-25T11:49:19.780Z,3.70
2023-04-25T11:51:48.979Z,3.10
2023-04-25T11:54:16.698Z,3.50
2023-04-25T11:56:45.028Z,3.45
2023-04-25T11:59:13.037Z,3.13
2023-04-25T12:01:42.656Z,3.60
2023-04-25T12:04:15.172Z,3.20
2023-04-25T12:06:44.569Z,3.63
2023-04-25T12:09:14.318Z,3.30
2023-04-25T12:11:50.143Z,3.50
2023-04-25T12:14:25.274Z,3.67
2023-04-25T12:16:52.881Z,3.35
2023-04-25T12:19:22.245Z,3.33
2023-04-25T12:21:58.119Z,4.00
2023-04-25T12:27:05.311Z,3.88
2023-04-25T12:29:41.946Z,5.07
2023-04-25T12:32:15.581Z,4.25
2023-04-25T12:34:42.717Z,4.15
2023-04-25T12:37:09.833Z,2.95
2023-04-25T12:39:37.003Z,3.65
2023-04-25T12:42:06.214Z,3.40
2023-04-25T12:44:36.093Z,4.40
2023-04-25T12:47:04.271Z,3.47
2023-04-25T12:49:31.674Z,3.60
2023-04-25T12:51:59.319Z,3.53
2023-04-25T12:54:27.041Z,3.80
2023-04-25T12:56:54.288Z,3.85
2023-04-25T12:59:22.397Z,3.80
2023-04-25T13:01:49.917Z,4.90
2023-04-25T13:04:18.855Z,5.88
2023-04-25T13:06:46.189Z,4.40
2023-04-25T13:09:13.747Z,4.68
2023-04-25T13:11:42.507Z,3.72
2023-04-25T13:14:09.573Z,4.80
2023-04-25T13:16:36.785Z,5.38
2023-04-25T13:19:03.866Z,4.88
2023-04-25T13:21:33.459Z,4.35
2023-04-25T13:24:00.813Z,4.97
2023-04-25T13:26:27.963Z,4.88
2023-04-25T13:28:54.994Z,4.88
2023-04-25T13:31:22.297Z,4.30
2023-04-25T13:33:49.987Z,4.70
2023-04-25T13:36:17.605Z,4.38
2023-04-25T13:38:46.175Z,4.15
2023-04-25T13:41:18.897Z,4.50
2023-04-25T13:43:49.050Z,4.15
2023-04-25T13:46:35.146Z,3.90
2023-04-25T13:49:12.421Z,4.32
2023-04-25T13:51:41.503Z,5.43
2023-04-25T13:54:08.819Z,4.53
2023-04-25T13:56:36.053Z,4.15
2023-04-25T13:59:03.032Z,4.50
2023-04-25T14:01:32.270Z,4.28
2023-04-25T14:03:59.553Z,5.43
2023-04-25T14:06:27.060Z,5.07
2023-04-25T14:08:55.075Z,4.90
2023-04-25T14:11:22.176Z,3.92
2023-04-25T14:13:50.622Z,3.80
2023-04-25T14:16:18.380Z,4.85
2023-04-25T14:18:45.460Z,5.10
2023-04-25T14:21:12.525Z,4.82
2023-04-25T14:23:39.598Z,5.20
2023-04-25T14:26:06.797Z,5.20
2023-04-25T14:28:33.869Z,5.43
2023-04-25T14:31:01.769Z,4.95
2023-04-25T14:33:28.974Z,4.53
2023-04-25T14:35:56.200Z,4.57
2023-04-25T14:38:24.516Z,4.82
2023-04-25T14:40:52.667Z,4.95
2023-04-25T14:43:19.642Z,5.10
2023-04-25T14:45:46.791Z,4.35
2023-04-25T14:48:13.987Z,5.07
2023-04-25T14:50:41.024Z,5.63
2023-04-25T14:53:08.140Z,5.20
2023-04-25T14:55:35.135Z,3.85
2023-04-25T14:58:02.183Z,4.05
2023-04-25T15:00:29.506Z,4.00
2023-04-25T15:02:57.318Z,4.10
2023-04-25T15:05:24.601Z,4.35
2023-04-25T15:07:51.725Z,3.90
2023-04-25T15:10:19.670Z,4.35
2023-04-25T15:12:48.019Z,3.67
2023-04-25T15:15:22.664Z,3.90
2023-04-25T15:17:53.004Z,4.00
2023-04-25T15:20:20.118Z,4.60
2023-04-25T15:22:49.766Z,4.70
2023-04-25T15:25:20.658Z,4.65
2023-04-25T15:27:49.631Z,3.95
2023-04-25T15:30:17.896Z,4.40
2023-04-25T15:32:47.228Z,4.68
2023-04-25T15:35:15.957Z,4.38
2023-04-25T15:37:43.451Z,4.47
2023-04-25T15:40:16.640Z,4.63
2023-04-25T15:42:51.548Z,4.18
2023-04-25T15:45:20.852Z,4.03
2023-04-25T15:47:48.044Z,4.13
2023-04-25T15:50:16.298Z,4.10
2023-04-25T15:52:43.917Z,4.35
2023-04-25T15:55:12.955Z,4.22
2023-04-25T15:57:42.131Z,3.88
2023-04-25T16:00:13.475Z,4.10
2023-04-25T16:02:43.480Z,3.85
2023-04-25T16:05:11.682Z,4.00
2023-04-25T16:07:43.515Z,4.15
2023-04-25T16:10:11.723Z,3.88
2023-04-25T16:12:42.220Z,3.92
2023-04-25T16:15:09.603Z,4.07
2023-04-25T16:17:36.888Z,4.10
2023-04-25T16:20:10.433Z,4.20
2023-04-25T16:22:42.281Z,3.75
2023-04-25T16:25:10.635Z,4.15
2023-04-25T16:27:40.732Z,4.78
2023-04-25T16:30:10.163Z,4.32
2023-04-25T16:32:38.332Z,4.95
2023-04-25T16:35:06.272Z,7.88
2023-04-25T16:37:33.598Z,5.80
2023-04-25T16:40:00.740Z,5.13
2023-04-25T16:42:30.844Z,4.45
2023-04-25T16:44:57.845Z,4.28
2023-04-25T16:47:25.692Z,4.45
2023-04-25T16:49:53.394Z,4.68
2023-04-25T16:52:22.105Z,5.47
2023-04-25T16:54:49.235Z,4.60
2023-04-25T16:57:16.637Z,4.30
2023-04-25T16:59:43.890Z,4.82
2023-04-25T17:02:13.246Z,4.95
2023-04-25T17:04:41.123Z,4.70
2023-04-25T17:07:08.906Z,4.93
2023-04-25T17:09:36.442Z,4.70
2023-04-25T17:12:04.638Z,4.65
2023-04-25T17:14:33.336Z,5.10
2023-04-25T17:17:01.019Z,4.30
2023-04-25T17:19:28.662Z,3.42
2023-04-25T17:21:56.220Z,3.75
2023-04-25T17:24:23.314Z,4.20
2023-04-25T17:26:50.354Z,4.60
2023-04-25T17:29:17.397Z,4.35
2023-04-25T17:31:45.071Z,3.88
2023-04-25T17:34:16.582Z,3.63
2023-04-25T17:36:45.116Z,4.25
2023-04-25T17:39:12.282Z,3.70
2023-04-25T17:41:39.297Z,3.35
2023-04-25T17:44:06.818Z,4.05
2023-04-25T17:46:33.868Z,3.60
2023-04-25T17:49:01.325Z,7.10
2023-04-25T17:51:28.609Z,4.05
2023-04-25T17:53:55.931Z,4.78
2023-04-25T17:56:27.176Z,4.25
2023-04-25T17:58:55.092Z,4.00
2023-04-25T18:01:22.845Z,4.30
2023-04-25T18:03:51.909Z,4.25
2023-04-25T18:06:19.413Z,4.35
2023-04-25T18:08:47.279Z,4.32
2023-04-25T18:11:14.498Z,4.05
2023-04-25T18:13:41.729Z,4.00
2023-04-25T18:16:09.161Z,3.72
2023-04-25T18:18:37.096Z,4.38
2023-04-25T18:21:05.853Z,4.10
2023-04-25T18:23:36.037Z,4.10
2023-04-25T18:26:04.449Z,3.83
2023-04-25T18:28:34.202Z,4.45
2023-04-25T18:31:01.769Z,4.50
2023-04-25T18:33:28.866Z,4.50
2023-04-25T18:35:59.678Z,4.75
2023-04-25T18:41:08.209Z,4.53
2023-04-25T18:43:44.918Z,5.10
2023-04-25T18:46:12.389Z,4.97
2023-04-25T18:48:39.444Z,4.65
2023-04-25T18:51:06.657Z,5.30
2023-04-25T18:53:33.821Z,5.55
2023-04-25T18:56:01.245Z,5.30
2023-04-25T18:58:28.370Z,4.97
2023-04-25T19:00:55.607Z,5.30
2023-04-25T19:03:22.966Z,5.20
2023-04-25T19:05:50.196Z,4.90
2023-04-25T19:08:17.264Z,5.07
2023-04-25T19:10:44.573Z,5.88
2023-04-25T19:13:11.629Z,5.90
2023-04-25T19:15:39.555Z,5.40
2023-04-25T19:18:06.953Z,6.18
2023-04-25T19:20:34.530Z,5.30
2023-04-25T19:23:01.861Z,5.20
2023-04-25T19:25:28.964Z,5.20
2023-04-25T19:27:56.721Z,5.05
2023-04-25T19:30:24.156Z,5.57
2023-04-25T19:32:51.283Z,5.32
2023-04-25T19:35:18.356Z,4.72
2023-04-25T19:37:48.215Z,4.10
2023-04-25T19:40:16.779Z,3.97
2023-04-25T19:42:45.047Z,3.80
2023-04-25T19:45:12.613Z,3.75
2023-04-25T19:47:39.900Z,3.70
2023-04-25T19:50:08.608Z,3.88
2023-04-25T19:52:36.886Z,3.28
2023-04-25T19:55:05.054Z,4.00
2023-04-25T19:57:35.132Z,3.70
2023-04-25T20:00:08.944Z,3.75
2023-04-25T20:02:45.521Z,3.95
2023-04-25T20:05:17.118Z,3.80
2023-04-25T20:07:44.286Z,3.80
2023-04-25T20:10:16.516Z,3.97
2023-04-25T20:12:44.936Z,3.45
2023-04-25T20:15:12.420Z,4.07
2023-04-25T20:17:41.940Z,4.20
2023-04-25T20:20:10.965Z,3.80
2023-04-25T20:22:40.279Z,3.78
2023-04-25T20:25:09.990Z,3.85
2023-04-25T20:27:40.544Z,4.38
2023-04-25T20:30:08.749Z,4.05
2023-04-25T20:32:37.125Z,4.20
2023-04-25T20:35:07.191Z,4.20
2023-04-25T20:37:35.463Z,4.35
2023-04-25T20:40:06.410Z,3.42
2023-04-25T20:42:34.405Z,3.78
2023-04-25T20:45:01.985Z,3.85
2023-04-25T20:47:31.590Z,3.58
2023-04-25T20:49:59.466Z,3.67
2023-04-25T20:52:26.509Z,4.00
2023-04-25T20:54:54.325Z,3.70
2023-04-25T20:57:21.371Z,3.80
2023-04-25T20:59:49.612Z,4.10
2023-04-25T21:02:17.970Z,4.32
2023-04-25T21:04:45.217Z,3.90
2023-04-25T21:07:13.197Z,3.95
2023-04-25T21:09:45.590Z,4.18
2023-04-25T21:12:12.866Z,4.38
2023-04-25T21:14:39.886Z,4.57
2023-04-25T21:17:06.983Z,4.43
2023-04-25T21:19:34.357Z,4.55
2023-04-25T21:22:02.419Z,4.20
2023-04-25T21:24:31.294Z,4.32
2023-04-25T21:26:58.802Z,4.30
2023-04-25T21:29:25.959Z,4.38
2023-04-25T21:31:53.154Z,4.63
2023-04-25T21:34:20.152Z,4.78
2023-04-25T21:36:47.170Z,4.32
2023-04-25T21:39:15.175Z,5.65
2023-04-25T21:41:44.496Z,4.28
2023-04-25T21:44:12.998Z,3.95
2023-04-25T21:46:40.061Z,4.53
2023-04-25T21:49:07.344Z,4.03
2023-04-25T21:51:34.434Z,4.75
2023-04-25T21:54:05.360Z,4.82
2023-04-25T21:56:33.213Z,4.60
2023-04-25T21:59:00.561Z,4.55
2023-04-25T22:01:28.696Z,4.80
2023-04-25T22:03:56.010Z,4.50
2023-04-25T22:06:23.231Z,4.90
2023-04-25T22:08:50.542Z,5.13
2023-04-25T22:11:17.761Z,4.97
2023-04-25T22:13:45.666Z,4.65
2023-04-25T22:16:13.051Z,5.13
2023-04-25T22:18:40.826Z,4.88
2023-04-25T22:21:08.868Z,5.55
2023-04-25T22:23:37.355Z,5.80
2023-04-25T22:26:05.246Z,5.60
2023-04-25T22:28:33.320Z,6.10
2023-04-25T22:31:00.585Z,5.28
2023-04-25T22:33:27.757Z,5.47
2023-04-25T22:35:54.810Z,6.13
2023-04-25T22:38:22.121Z,5.43
2023-04-25T22:40:49.349Z,5.82
2023-04-25T22:43:16.680Z,5.93
2023-04-25T22:45:44.103Z,5.53
2023-04-25T22:48:11.576Z,6.30
2023-04-25T22:50:40.798Z,6.25
2023-04-25T22:53:10.214Z,6.78
2023-04-25T22:55:37.543Z,5.50
2023-04-25T22:58:05.314Z,6.57
2023-04-25T23:00:34.503Z,5.72
2023-04-25T23:03:06.145Z,5.97
2023-04-25T23:05:33.579Z,5.65
2023-04-25T23:08:00.707Z,5.00
2023-04-25T23:10:30.935Z,5.43
2023-04-25T23:13:00.549Z,6.00
2023-04-25T23:15:30.932Z,6.57
2023-04-25T23:17:58.697Z,6.25
2023-04-25T23:20:26.785Z,5.75
2023-04-25T23:22:54.876Z,5.35
2023-04-25T23:25:22.514Z,5.70
2023-04-25T23:27:49.713Z,5.32
2023-04-25T23:30:17.009Z,6.60
2023-04-25T23:32:44.194Z,7.18
2023-04-25T23:35:11.510Z,5.85
2023-04-25T23:37:40.535Z,6.15
2023-04-25T23:40:12.721Z,5.90
2023-04-25T23:42:41.271Z,6.05
2023-04-25T23:45:09.311Z,5.70
2023-04-25T23:47:36.709Z,6.18
2023-04-25T23:50:04.738Z,5.00
2023-04-25T23:52:32.431Z,5.57
2023-04-25T23:54:59.473Z,5.15
2023-04-25T23:57:26.924Z,5.50
2023-04-25T23:59:54.043Z,5.53
